sensor_id;sensor_type;location;lat;lon;timestamp;temperature;humidity
28959;DHT22;16066;0.000;0.000;2023-03-11T00:02:22;18.70;43.40
28959;DHT22;16066;0.000;0.000;2023-03-11T00:04:48;18.60;43.30
28959;DHT22;16066;0.000;0.000;2023-03-11T00:07:13;18.60;43.30
28959;DHT22;16066;0.000;0.000;2023-03-11T00:09:39;18.60;43.30
28959;DHT22;16066;0.000;0.000;2023-03-11T00:12:05;18.60;43.40
28959;DHT22;16066;0.000;0.000;2023-03-11T00:14:30;18.50;43.40
28959;DHT22;16066;0.000;0.000;2023-03-11T00:16:56;18.50;43.40
28959;DHT22;16066;0.000;0.000;2023-03-11T00:19:21;18.50;43.50
28959;DHT22;16066;0.000;0.000;2023-03-11T00:21:47;18.50;43.30
28959;DHT22;16066;0.000;0.000;2023-03-11T00:24:13;18.40;43.50
28959;DHT22;16066;0.000;0.000;2023-03-11T00:26:38;18.40;43.50
28959;DHT22;16066;0.000;0.000;2023-03-11T00:29:04;18.40;43.60
28959;DHT22;16066;0.000;0.000;2023-03-11T00:31:29;18.40;43.60
28959;DHT22;16066;0.000;0.000;2023-03-11T00:33:55;18.40;43.50
28959;DHT22;16066;0.000;0.000;2023-03-11T00:36:31;18.30;43.50
28959;DHT22;16066;0.000;0.000;2023-03-11T00:38:58;18.30;43.60
28959;DHT22;16066;0.000;0.000;2023-03-11T00:41:24;18.30;43.60
28959;DHT22;16066;0.000;0.000;2023-03-11T00:43:50;18.30;43.60
28959;DHT22;16066;0.000;0.000;2023-03-11T00:46:16;18.30;43.70
28959;DHT22;16066;0.000;0.000;2023-03-11T00:48:41;18.30;43.70
28959;DHT22;16066;0.000;0.000;2023-03-11T00:51:12;18.30;43.70
28959;DHT22;16066;0.000;0.000;2023-03-11T00:53:38;18.20;43.60
28959;DHT22;16066;0.000;0.000;2023-03-11T00:56:12;18.20;43.60
28959;DHT22;16066;0.000;0.000;2023-03-11T00:58:38;18.20;43.60
28959;DHT22;16066;0.000;0.000;2023-03-11T01:01:08;18.20;43.70
28959;DHT22;16066;0.000;0.000;2023-03-11T01:03:34;18.20;43.70
28959;DHT22;16066;0.000;0.000;2023-03-11T01:06:00;18.20;43.70
28959;DHT22;16066;0.000;0.000;2023-03-11T01:08:26;18.20;43.80
28959;DHT22;16066;0.000;0.000;2023-03-11T01:10:52;18.10;43.70
28959;DHT22;16066;0.000;0.000;2023-03-11T01:13:17;18.10;43.70
28959;DHT22;16066;0.000;0.000;2023-03-11T01:15:43;18.10;43.70
28959;DHT22;16066;0.000;0.000;2023-03-11T01:18:08;18.10;43.70
28959;DHT22;16066;0.000;0.000;2023-03-11T01:20:36;18.10;43.80
28959;DHT22;16066;0.000;0.000;2023-03-11T01:23:02;18.10;43.80
28959;DHT22;16066;0.000;0.000;2023-03-11T01:25:28;18.10;43.80
28959;DHT22;16066;0.000;0.000;2023-03-11T01:27:53;18.10;43.80
28959;DHT22;16066;0.000;0.000;2023-03-11T01:30:21;18.10;43.80
28959;DHT22;16066;0.000;0.000;2023-03-11T01:32:47;18.10;43.80
28959;DHT22;16066;0.000;0.000;2023-03-11T01:35:14;18.00;43.60
28959;DHT22;16066;0.000;0.000;2023-03-11T01:37:40;18.10;43.80
28959;DHT22;16066;0.000;0.000;2023-03-11T01:40:07;18.00;43.70
28959;DHT22;16066;0.000;0.000;2023-03-11T01:42:33;18.00;43.70
28959;DHT22;16066;0.000;0.000;2023-03-11T01:44:59;18.00;43.70
28959;DHT22;16066;0.000;0.000;2023-03-11T01:47:36;18.00;43.70
28959;DHT22;16066;0.000;0.000;2023-03-11T01:50:04;18.00;43.80
28959;DHT22;16066;0.000;0.000;2023-03-11T01:52:31;18.00;43.70
28959;DHT22;16066;0.000;0.000;2023-03-11T01:54:57;18.00;43.80
28959;DHT22;16066;0.000;0.000;2023-03-11T01:57:22;18.00;43.80
28959;DHT22;16066;0.000;0.000;2023-03-11T01:59:51;17.90;43.70
28959;DHT22;16066;0.000;0.000;2023-03-11T02:02:41;17.90;43.70
28959;DHT22;16066;0.000;0.000;2023-03-11T02:05:07;17.90;43.70
28959;DHT22;16066;0.000;0.000;2023-03-11T02:07:33;17.90;43.70
28959;DHT22;16066;0.000;0.000;2023-03-11T02:09:59;17.90;43.80
28959;DHT22;16066;0.000;0.000;2023-03-11T02:12:28;17.90;43.70
28959;DHT22;16066;0.000;0.000;2023-03-11T02:14:55;17.90;43.70
28959;DHT22;16066;0.000;0.000;2023-03-11T02:17:21;17.90;43.70
28959;DHT22;16066;0.000;0.000;2023-03-11T02:22:37;17.90;43.70
28959;DHT22;16066;0.000;0.000;2023-03-11T02:25:23;17.90;43.90
28959;DHT22;16066;0.000;0.000;2023-03-11T02:27:52;17.90;43.80
28959;DHT22;16066;0.000;0.000;2023-03-11T02:30:20;17.90;43.90
28959;DHT22;16066;0.000;0.000;2023-03-11T02:32:47;17.90;43.90
28959;DHT22;16066;0.000;0.000;2023-03-11T02:35:13;17.90;43.90
28959;DHT22;16066;0.000;0.000;2023-03-11T02:37:51;17.90;43.90
28959;DHT22;16066;0.000;0.000;2023-03-11T02:43:04;17.80;44.00
28959;DHT22;16066;0.000;0.000;2023-03-11T02:45:30;17.80;43.80
28959;DHT22;16066;0.000;0.000;2023-03-11T02:47:57;17.80;43.70
28959;DHT22;16066;0.000;0.000;2023-03-11T02:50:23;17.80;43.80
28959;DHT22;16066;0.000;0.000;2023-03-11T02:52:50;17.80;43.80
28959;DHT22;16066;0.000;0.000;2023-03-11T02:55:17;17.80;43.90
28959;DHT22;16066;0.000;0.000;2023-03-11T02:57:46;17.80;43.90
28959;DHT22;16066;0.000;0.000;2023-03-11T03:00:13;17.80;43.90
28959;DHT22;16066;0.000;0.000;2023-03-11T03:02:41;17.80;43.90
28959;DHT22;16066;0.000;0.000;2023-03-11T03:05:08;17.80;43.90
28959;DHT22;16066;0.000;0.000;2023-03-11T03:07:34;17.80;43.90
28959;DHT22;16066;0.000;0.000;2023-03-11T03:10:00;17.80;43.90
28959;DHT22;16066;0.000;0.000;2023-03-11T03:12:26;17.80;43.90
28959;DHT22;16066;0.000;0.000;2023-03-11T03:14:52;17.70;43.80
28959;DHT22;16066;0.000;0.000;2023-03-11T03:17:17;17.70;43.90
28959;DHT22;16066;0.000;0.000;2023-03-11T03:19:43;17.70;43.80
28959;DHT22;16066;0.000;0.000;2023-03-11T03:22:08;17.70;43.90
28959;DHT22;16066;0.000;0.000;2023-03-11T03:24:34;17.70;43.90
28959;DHT22;16066;0.000;0.000;2023-03-11T03:26:59;17.70;44.00
28959;DHT22;16066;0.000;0.000;2023-03-11T03:29:25;17.70;43.90
28959;DHT22;16066;0.000;0.000;2023-03-11T03:31:50;17.70;43.90
28959;DHT22;16066;0.000;0.000;2023-03-11T03:34:16;17.70;43.90
28959;DHT22;16066;0.000;0.000;2023-03-11T03:36:41;17.70;43.90
28959;DHT22;16066;0.000;0.000;2023-03-11T03:39:07;17.70;43.90
28959;DHT22;16066;0.000;0.000;2023-03-11T03:41:33;17.70;43.80
28959;DHT22;16066;0.000;0.000;2023-03-11T03:43:58;17.70;44.50
28959;DHT22;16066;0.000;0.000;2023-03-11T03:46:24;17.60;43.80
28959;DHT22;16066;0.000;0.000;2023-03-11T03:48:49;17.70;43.80
28959;DHT22;16066;0.000;0.000;2023-03-11T03:51:15;17.60;43.80
28959;DHT22;16066;0.000;0.000;2023-03-11T03:53:41;17.60;43.80
28959;DHT22;16066;0.000;0.000;2023-03-11T03:56:14;17.60;43.90
28959;DHT22;16066;0.000;0.000;2023-03-11T03:58:40;17.60;43.90
28959;DHT22;16066;0.000;0.000;2023-03-11T04:01:07;17.60;43.80
28959;DHT22;16066;0.000;0.000;2023-03-11T04:03:33;17.60;43.90
28959;DHT22;16066;0.000;0.000;2023-03-11T04:08:31;17.60;43.90
28959;DHT22;16066;0.000;0.000;2023-03-11T04:10:57;17.60;43.90
28959;DHT22;16066;0.000;0.000;2023-03-11T04:13:23;17.60;43.90
28959;DHT22;16066;0.000;0.000;2023-03-11T04:15:48;17.60;43.90
28959;DHT22;16066;0.000;0.000;2023-03-11T04:18:14;17.50;43.70
28959;DHT22;16066;0.000;0.000;2023-03-11T04:20:39;17.50;43.80
28959;DHT22;16066;0.000;0.000;2023-03-11T04:23:05;17.50;43.80
28959;DHT22;16066;0.000;0.000;2023-03-11T04:25:30;17.60;43.90
28959;DHT22;16066;0.000;0.000;2023-03-11T04:27:56;17.50;43.90
28959;DHT22;16066;0.000;0.000;2023-03-11T04:30:22;17.50;43.90
28959;DHT22;16066;0.000;0.000;2023-03-11T04:32:47;17.60;44.00
28959;DHT22;16066;0.000;0.000;2023-03-11T04:35:13;17.50;43.90
28959;DHT22;16066;0.000;0.000;2023-03-11T04:37:38;17.50;43.90
28959;DHT22;16066;0.000;0.000;2023-03-11T04:40:04;17.50;43.90
28959;DHT22;16066;0.000;0.000;2023-03-11T04:42:31;17.50;43.90
28959;DHT22;16066;0.000;0.000;2023-03-11T04:44:56;17.50;43.90
28959;DHT22;16066;0.000;0.000;2023-03-11T04:47:22;17.50;43.80
28959;DHT22;16066;0.000;0.000;2023-03-11T04:49:48;17.50;43.90
28959;DHT22;16066;0.000;0.000;2023-03-11T04:52:13;17.50;43.90
28959;DHT22;16066;0.000;0.000;2023-03-11T04:54:39;17.50;43.90
28959;DHT22;16066;0.000;0.000;2023-03-11T04:57:05;17.50;43.90
28959;DHT22;16066;0.000;0.000;2023-03-11T04:59:30;17.50;43.90
28959;DHT22;16066;0.000;0.000;2023-03-11T05:01:56;17.50;43.90
28959;DHT22;16066;0.000;0.000;2023-03-11T05:04:21;17.40;43.80
28959;DHT22;16066;0.000;0.000;2023-03-11T05:06:47;17.50;43.80
28959;DHT22;16066;0.000;0.000;2023-03-11T05:09:15;17.50;43.80
28959;DHT22;16066;0.000;0.000;2023-03-11T05:11:41;17.40;43.70
28959;DHT22;16066;0.000;0.000;2023-03-11T05:14:06;17.40;43.70
28959;DHT22;16066;0.000;0.000;2023-03-11T05:16:32;17.40;43.70
28959;DHT22;16066;0.000;0.000;2023-03-11T05:18:57;17.40;43.70
28959;DHT22;16066;0.000;0.000;2023-03-11T05:21:23;17.40;43.70
28959;DHT22;16066;0.000;0.000;2023-03-11T05:23:48;17.40;43.70
28959;DHT22;16066;0.000;0.000;2023-03-11T05:26:14;17.40;43.70
28959;DHT22;16066;0.000;0.000;2023-03-11T05:28:40;17.40;43.70
28959;DHT22;16066;0.000;0.000;2023-03-11T05:31:09;17.50;43.80
28959;DHT22;16066;0.000;0.000;2023-03-11T05:33:35;17.40;43.80
28959;DHT22;16066;0.000;0.000;2023-03-11T05:36:08;17.40;43.70
28959;DHT22;16066;0.000;0.000;2023-03-11T05:38:35;17.40;43.70
28959;DHT22;16066;0.000;0.000;2023-03-11T05:41:00;17.40;43.60
28959;DHT22;16066;0.000;0.000;2023-03-11T05:43:26;17.40;43.60
28959;DHT22;16066;0.000;0.000;2023-03-11T05:45:51;17.40;43.70
28959;DHT22;16066;0.000;0.000;2023-03-11T05:48:17;17.40;43.60
28959;DHT22;16066;0.000;0.000;2023-03-11T05:50:42;17.40;43.70
28959;DHT22;16066;0.000;0.000;2023-03-11T05:53:08;17.40;43.50
28959;DHT22;16066;0.000;0.000;2023-03-11T05:55:33;17.40;43.30
28959;DHT22;16066;0.000;0.000;2023-03-11T05:57:59;17.40;43.20
28959;DHT22;16066;0.000;0.000;2023-03-11T06:00:24;17.40;43.20
28959;DHT22;16066;0.000;0.000;2023-03-11T06:02:53;17.40;43.20
28959;DHT22;16066;0.000;0.000;2023-03-11T06:05:19;17.30;43.10
28959;DHT22;16066;0.000;0.000;2023-03-11T06:07:44;17.30;43.20
28959;DHT22;16066;0.000;0.000;2023-03-11T06:10:10;17.30;43.20
28959;DHT22;16066;0.000;0.000;2023-03-11T06:12:36;17.40;43.30
28959;DHT22;16066;0.000;0.000;2023-03-11T06:15:04;17.40;43.30
28959;DHT22;16066;0.000;0.000;2023-03-11T06:17:29;17.30;43.20
28959;DHT22;16066;0.000;0.000;2023-03-11T06:19:55;17.30;43.20
28959;DHT22;16066;0.000;0.000;2023-03-11T06:22:20;17.30;43.10
28959;DHT22;16066;0.000;0.000;2023-03-11T06:24:46;17.30;43.20
28959;DHT22;16066;0.000;0.000;2023-03-11T06:27:11;17.30;43.30
28959;DHT22;16066;0.000;0.000;2023-03-11T06:29:37;17.30;43.20
28959;DHT22;16066;0.000;0.000;2023-03-11T06:32:02;17.30;43.20
28959;DHT22;16066;0.000;0.000;2023-03-11T06:34:28;17.30;43.30
28959;DHT22;16066;0.000;0.000;2023-03-11T06:36:54;17.30;43.40
28959;DHT22;16066;0.000;0.000;2023-03-11T06:39:19;17.30;43.30
28959;DHT22;16066;0.000;0.000;2023-03-11T06:41:45;17.30;43.40
28959;DHT22;16066;0.000;0.000;2023-03-11T06:44:10;17.30;43.30
28959;DHT22;16066;0.000;0.000;2023-03-11T06:46:36;17.30;43.20
28959;DHT22;16066;0.000;0.000;2023-03-11T06:49:02;17.40;43.40
28959;DHT22;16066;0.000;0.000;2023-03-11T06:51:27;17.50;43.40
28959;DHT22;16066;0.000;0.000;2023-03-11T06:53:53;17.50;43.20
28959;DHT22;16066;0.000;0.000;2023-03-11T06:56:20;17.60;43.30
28959;DHT22;16066;0.000;0.000;2023-03-11T06:58:46;17.60;43.30
28959;DHT22;16066;0.000;0.000;2023-03-11T07:01:18;17.70;43.30
28959;DHT22;16066;0.000;0.000;2023-03-11T07:03:45;17.70;43.40
28959;DHT22;16066;0.000;0.000;2023-03-11T07:06:16;17.80;43.50
28959;DHT22;16066;0.000;0.000;2023-03-11T07:08:42;17.90;43.50
28959;DHT22;16066;0.000;0.000;2023-03-11T07:11:13;18.00;43.30
28959;DHT22;16066;0.000;0.000;2023-03-11T07:13:39;18.10;43.30
28959;DHT22;16066;0.000;0.000;2023-03-11T07:16:07;18.20;43.20
28959;DHT22;16066;0.000;0.000;2023-03-11T07:18:34;18.40;43.10
28959;DHT22;16066;0.000;0.000;2023-03-11T07:21:01;18.50;43.00
28959;DHT22;16066;0.000;0.000;2023-03-11T07:23:27;18.60;42.90
28959;DHT22;16066;0.000;0.000;2023-03-11T07:25:52;18.70;42.70
28959;DHT22;16066;0.000;0.000;2023-03-11T07:28:23;18.80;42.70
28959;DHT22;16066;0.000;0.000;2023-03-11T07:30:48;18.90;42.50
28959;DHT22;16066;0.000;0.000;2023-03-11T07:33:14;19.00;42.50
28959;DHT22;16066;0.000;0.000;2023-03-11T07:35:40;19.10;42.50
28959;DHT22;16066;0.000;0.000;2023-03-11T07:38:06;19.20;42.20
28959;DHT22;16066;0.000;0.000;2023-03-11T07:40:32;19.30;42.30
28959;DHT22;16066;0.000;0.000;2023-03-11T07:42:58;19.30;43.00
28959;DHT22;16066;0.000;0.000;2023-03-11T07:45:23;19.40;42.40
28959;DHT22;16066;0.000;0.000;2023-03-11T07:47:49;19.40;41.90
28959;DHT22;16066;0.000;0.000;2023-03-11T07:50:15;19.50;42.00
28959;DHT22;16066;0.000;0.000;2023-03-11T07:52:41;19.50;41.90
28959;DHT22;16066;0.000;0.000;2023-03-11T07:55:07;19.50;41.80
28959;DHT22;16066;0.000;0.000;2023-03-11T07:57:33;19.60;41.80
28959;DHT22;16066;0.000;0.000;2023-03-11T07:59:59;19.60;42.00
28959;DHT22;16066;0.000;0.000;2023-03-11T08:02:24;19.60;41.70
28959;DHT22;16066;0.000;0.000;2023-03-11T08:04:50;19.60;41.60
28959;DHT22;16066;0.000;0.000;2023-03-11T08:07:15;19.60;41.40
28959;DHT22;16066;0.000;0.000;2023-03-11T08:09:41;19.60;41.40
28959;DHT22;16066;0.000;0.000;2023-03-11T08:12:06;19.70;41.40
28959;DHT22;16066;0.000;0.000;2023-03-11T08:14:32;19.70;41.30
28959;DHT22;16066;0.000;0.000;2023-03-11T08:16:57;19.70;41.20
28959;DHT22;16066;0.000;0.000;2023-03-11T08:19:23;19.70;41.00
28959;DHT22;16066;0.000;0.000;2023-03-11T08:21:49;19.70;41.00
28959;DHT22;16066;0.000;0.000;2023-03-11T08:24:14;19.70;40.80
28959;DHT22;16066;0.000;0.000;2023-03-11T08:26:40;19.80;40.80
28959;DHT22;16066;0.000;0.000;2023-03-11T08:29:06;19.80;40.60
28959;DHT22;16066;0.000;0.000;2023-03-11T08:31:33;19.80;40.40
28959;DHT22;16066;0.000;0.000;2023-03-11T08:34:04;19.80;40.40
28959;DHT22;16066;0.000;0.000;2023-03-11T08:36:30;19.90;40.30
28959;DHT22;16066;0.000;0.000;2023-03-11T08:38:56;19.90;40.20
28959;DHT22;16066;0.000;0.000;2023-03-11T08:41:22;19.90;40.20
28959;DHT22;16066;0.000;0.000;2023-03-11T08:43:47;19.90;40.00
28959;DHT22;16066;0.000;0.000;2023-03-11T08:46:20;20.00;40.20
28959;DHT22;16066;0.000;0.000;2023-03-11T08:48:46;20.00;40.10
28959;DHT22;16066;0.000;0.000;2023-03-11T08:51:12;20.00;40.00
28959;DHT22;16066;0.000;0.000;2023-03-11T08:53:38;20.10;40.00
28959;DHT22;16066;0.000;0.000;2023-03-11T08:56:04;20.10;40.20
28959;DHT22;16066;0.000;0.000;2023-03-11T08:58:30;20.10;40.20
28959;DHT22;16066;0.000;0.000;2023-03-11T09:00:56;20.10;40.20
28959;DHT22;16066;0.000;0.000;2023-03-11T09:03:21;20.10;40.20
28959;DHT22;16066;0.000;0.000;2023-03-11T09:05:47;20.10;40.20
28959;DHT22;16066;0.000;0.000;2023-03-11T09:08:12;20.20;40.20
28959;DHT22;16066;0.000;0.000;2023-03-11T09:10:38;20.20;40.50
28959;DHT22;16066;0.000;0.000;2023-03-11T09:13:03;20.20;40.40
28959;DHT22;16066;0.000;0.000;2023-03-11T09:15:29;20.20;40.20
28959;DHT22;16066;0.000;0.000;2023-03-11T09:17:54;20.20;40.10
28959;DHT22;16066;0.000;0.000;2023-03-11T09:20:21;20.20;40.00
28959;DHT22;16066;0.000;0.000;2023-03-11T09:22:47;20.20;39.90
28959;DHT22;16066;0.000;0.000;2023-03-11T09:25:13;20.30;40.10
28959;DHT22;16066;0.000;0.000;2023-03-11T09:27:38;20.30;40.30
28959;DHT22;16066;0.000;0.000;2023-03-11T09:30:06;20.30;40.50
28959;DHT22;16066;0.000;0.000;2023-03-11T09:32:32;20.30;40.60
28959;DHT22;16066;0.000;0.000;2023-03-11T09:34:57;20.30;40.60
28959;DHT22;16066;0.000;0.000;2023-03-11T09:37:23;20.30;40.60
28959;DHT22;16066;0.000;0.000;2023-03-11T09:39:49;20.30;40.60
28959;DHT22;16066;0.000;0.000;2023-03-11T09:50:41;20.30;40.60
28959;DHT22;16066;0.000;0.000;2023-03-11T09:56:14;20.30;40.60
28959;DHT22;16066;0.000;0.000;2023-03-11T09:58:55;20.30;40.50
28959;DHT22;16066;0.000;0.000;2023-03-11T10:01:41;20.30;40.70
28959;DHT22;16066;0.000;0.000;2023-03-11T10:04:20;20.30;40.80
28959;DHT22;16066;0.000;0.000;2023-03-11T10:06:48;20.20;40.80
28959;DHT22;16066;0.000;0.000;2023-03-11T10:09:34;20.20;40.70
28959;DHT22;16066;0.000;0.000;2023-03-11T10:15:15;20.30;40.80
28959;DHT22;16066;0.000;0.000;2023-03-11T10:18:33;20.30;40.70
28959;DHT22;16066;0.000;0.000;2023-03-11T10:20:45;20.30;40.70
28959;DHT22;16066;0.000;0.000;2023-03-11T10:23:18;20.30;40.70
28959;DHT22;16066;0.000;0.000;2023-03-11T10:26:00;20.20;40.80
28959;DHT22;16066;0.000;0.000;2023-03-11T10:28:32;20.30;40.80
28959;DHT22;16066;0.000;0.000;2023-03-11T10:31:21;20.20;40.80
28959;DHT22;16066;0.000;0.000;2023-03-11T10:33:58;20.20;40.70
28959;DHT22;16066;0.000;0.000;2023-03-11T10:36:45;20.20;40.70
28959;DHT22;16066;0.000;0.000;2023-03-11T10:39:11;20.20;40.90
28959;DHT22;16066;0.000;0.000;2023-03-11T10:41:43;20.20;40.90
28959;DHT22;16066;0.000;0.000;2023-03-11T10:44:30;20.20;41.00
28959;DHT22;16066;0.000;0.000;2023-03-11T10:46:56;20.20;41.00
28959;DHT22;16066;0.000;0.000;2023-03-11T10:49:22;20.20;40.90
28959;DHT22;16066;0.000;0.000;2023-03-11T10:51:50;20.20;41.00
28959;DHT22;16066;0.000;0.000;2023-03-11T10:54:35;20.20;41.00
28959;DHT22;16066;0.000;0.000;2023-03-11T10:57:05;20.10;40.80
28959;DHT22;16066;0.000;0.000;2023-03-11T10:59:36;20.10;40.80
28959;DHT22;16066;0.000;0.000;2023-03-11T11:02:23;20.10;40.80
28959;DHT22;16066;0.000;0.000;2023-03-11T11:05:06;20.10;40.90
28959;DHT22;16066;0.000;0.000;2023-03-11T11:07:35;20.10;40.80
28959;DHT22;16066;0.000;0.000;2023-03-11T11:10:22;20.10;40.80
28959;DHT22;16066;0.000;0.000;2023-03-11T11:12:52;20.10;41.40
28959;DHT22;16066;0.000;0.000;2023-03-11T11:17:52;20.10;40.70
28959;DHT22;16066;0.000;0.000;2023-03-11T11:20:20;20.10;40.70
28959;DHT22;16066;0.000;0.000;2023-03-11T11:23:04;20.10;40.60
28959;DHT22;16066;0.000;0.000;2023-03-11T11:25:35;20.10;40.60
28959;DHT22;16066;0.000;0.000;2023-03-11T11:28:14;20.10;40.80
28959;DHT22;16066;0.000;0.000;2023-03-11T11:30:57;20.10;40.80
28959;DHT22;16066;0.000;0.000;2023-03-11T11:33:29;20.10;40.50
28959;DHT22;16066;0.000;0.000;2023-03-11T11:35:58;20.10;40.50
28959;DHT22;16066;0.000;0.000;2023-03-11T11:38:27;20.10;40.70
28959;DHT22;16066;0.000;0.000;2023-03-11T11:40:55;20.10;40.50
28959;DHT22;16066;0.000;0.000;2023-03-11T11:43:26;20.10;40.60
28959;DHT22;16066;0.000;0.000;2023-03-11T11:45:58;20.10;40.60
28959;DHT22;16066;0.000;0.000;2023-03-11T11:48:48;20.10;40.50
28959;DHT22;16066;0.000;0.000;2023-03-11T11:51:21;20.00;40.30
28959;DHT22;16066;0.000;0.000;2023-03-11T11:56:24;20.00;40.40
28959;DHT22;16066;0.000;0.000;2023-03-11T11:58:50;20.00;40.30
28959;DHT22;16066;0.000;0.000;2023-03-11T12:01:29;20.00;40.30
28959;DHT22;16066;0.000;0.000;2023-03-11T12:12:26;20.00;40.00
28959;DHT22;16066;0.000;0.000;2023-03-11T12:15:16;20.00;40.20
28959;DHT22;16066;0.000;0.000;2023-03-11T12:17:45;20.00;40.20
28959;DHT22;16066;0.000;0.000;2023-03-11T12:20:32;20.00;40.30
28959;DHT22;16066;0.000;0.000;2023-03-11T12:23:17;20.00;40.30
28959;DHT22;16066;0.000;0.000;2023-03-11T12:26:00;20.10;40.50
28959;DHT22;16066;0.000;0.000;2023-03-11T12:31:09;20.10;40.50
28959;DHT22;16066;0.000;0.000;2023-03-11T12:33:44;20.10;40.50
28959;DHT22;16066;0.000;0.000;2023-03-11T12:38:57;20.10;40.50
28959;DHT22;16066;0.000;0.000;2023-03-11T12:41:33;20.10;40.60
28959;DHT22;16066;0.000;0.000;2023-03-11T12:44:11;20.10;40.60
28959;DHT22;16066;0.000;0.000;2023-03-11T12:54:30;20.10;40.70
28959;DHT22;16066;0.000;0.000;2023-03-11T12:57:25;20.10;40.70
28959;DHT22;16066;0.000;0.000;2023-03-11T13:03:08;20.10;40.80
28959;DHT22;16066;0.000;0.000;2023-03-11T13:08:49;20.10;40.80
28959;DHT22;16066;0.000;0.000;2023-03-11T13:11:37;20.10;40.80
28959;DHT22;16066;0.000;0.000;2023-03-11T13:14:31;20.10;40.70
28959;DHT22;16066;0.000;0.000;2023-03-11T13:17:26;20.20;41.00
28959;DHT22;16066;0.000;0.000;2023-03-11T13:19:56;20.20;40.80
28959;DHT22;16066;0.000;0.000;2023-03-11T13:25:36;20.20;40.80
28959;DHT22;16066;0.000;0.000;2023-03-11T13:28:25;20.20;40.90
28959;DHT22;16066;0.000;0.000;2023-03-11T13:31:32;20.30;41.00
28959;DHT22;16066;0.000;0.000;2023-03-11T13:34:13;20.30;40.90
28959;DHT22;16066;0.000;0.000;2023-03-11T13:39:38;20.30;40.80
28959;DHT22;16066;0.000;0.000;2023-03-11T13:42:29;20.30;40.90
28959;DHT22;16066;0.000;0.000;2023-03-11T13:44:57;20.30;40.90
28959;DHT22;16066;0.000;0.000;2023-03-11T13:47:24;20.30;40.80
28959;DHT22;16066;0.000;0.000;2023-03-11T13:50:08;20.30;40.60
28959;DHT22;16066;0.000;0.000;2023-03-11T13:52:43;20.30;40.60
28959;DHT22;16066;0.000;0.000;2023-03-11T13:55:31;20.30;40.70
28959;DHT22;16066;0.000;0.000;2023-03-11T13:57:58;20.30;40.60
28959;DHT22;16066;0.000;0.000;2023-03-11T14:00:26;20.30;40.60
28959;DHT22;16066;0.000;0.000;2023-03-11T14:03:01;20.30;40.60
28959;DHT22;16066;0.000;0.000;2023-03-11T14:05:32;20.30;40.70
28959;DHT22;16066;0.000;0.000;2023-03-11T14:11:15;20.40;40.90
28959;DHT22;16066;0.000;0.000;2023-03-11T14:13:50;20.40;40.80
28959;DHT22;16066;0.000;0.000;2023-03-11T14:16:23;20.50;40.70
28959;DHT22;16066;0.000;0.000;2023-03-11T14:19:16;20.60;40.30
28959;DHT22;16066;0.000;0.000;2023-03-11T14:21:46;20.70;40.10
28959;DHT22;16066;0.000;0.000;2023-03-11T14:24:24;20.70;39.90
28959;DHT22;16066;0.000;0.000;2023-03-11T14:26:54;20.80;39.80
28959;DHT22;16066;0.000;0.000;2023-03-11T14:29:38;20.90;39.70
28959;DHT22;16066;0.000;0.000;2023-03-11T14:32:30;21.00;39.50
28959;DHT22;16066;0.000;0.000;2023-03-11T14:34:57;21.10;39.30
28959;DHT22;16066;0.000;0.000;2023-03-11T14:37:33;21.10;39.10
28959;DHT22;16066;0.000;0.000;2023-03-11T14:39:59;21.30;39.80
28959;DHT22;16066;0.000;0.000;2023-03-11T14:42:28;21.40;39.10
28959;DHT22;16066;0.000;0.000;2023-03-11T14:45:09;21.60;38.90
28959;DHT22;16066;0.000;0.000;2023-03-11T14:50:03;21.90;38.50
28959;DHT22;16066;0.000;0.000;2023-03-11T14:52:49;22.10;38.30
28959;DHT22;16066;0.000;0.000;2023-03-11T14:55:22;22.20;38.00
28959;DHT22;16066;0.000;0.000;2023-03-11T14:58:15;22.40;37.80
28959;DHT22;16066;0.000;0.000;2023-03-11T15:03:44;22.60;37.80
28959;DHT22;16066;0.000;0.000;2023-03-11T15:06:15;22.60;37.50
28959;DHT22;16066;0.000;0.000;2023-03-11T15:08:45;22.70;37.40
28959;DHT22;16066;0.000;0.000;2023-03-11T15:13:38;22.80;37.00
28959;DHT22;16066;0.000;0.000;2023-03-11T15:16:06;22.80;36.90
28959;DHT22;16066;0.000;0.000;2023-03-11T15:18:36;22.80;37.00
28959;DHT22;16066;0.000;0.000;2023-03-11T15:23:33;22.50;37.30
28959;DHT22;16066;0.000;0.000;2023-03-11T15:25:59;22.30;37.30
28959;DHT22;16066;0.000;0.000;2023-03-11T15:28:30;22.30;37.20
28959;DHT22;16066;0.000;0.000;2023-03-11T15:33:44;22.30;36.90
28959;DHT22;16066;0.000;0.000;2023-03-11T15:41:38;22.40;37.00
28959;DHT22;16066;0.000;0.000;2023-03-11T15:44:04;22.40;37.20
28959;DHT22;16066;0.000;0.000;2023-03-11T15:46:32;22.30;37.40
28959;DHT22;16066;0.000;0.000;2023-03-11T15:48:58;22.20;37.40
28959;DHT22;16066;0.000;0.000;2023-03-11T15:51:24;22.10;37.40
28959;DHT22;16066;0.000;0.000;2023-03-11T15:53:49;21.90;37.30
28959;DHT22;16066;0.000;0.000;2023-03-11T15:56:21;21.80;37.30
28959;DHT22;16066;0.000;0.000;2023-03-11T15:58:48;21.70;38.00
28959;DHT22;16066;0.000;0.000;2023-03-11T16:01:13;21.60;37.20
28959;DHT22;16066;0.000;0.000;2023-03-11T16:03:39;21.50;36.90
28959;DHT22;16066;0.000;0.000;2023-03-11T16:06:04;21.30;36.80
28959;DHT22;16066;0.000;0.000;2023-03-11T16:08:30;21.30;36.70
28959;DHT22;16066;0.000;0.000;2023-03-11T16:10:55;21.20;37.00
28959;DHT22;16066;0.000;0.000;2023-03-11T16:13:22;21.10;36.70
28959;DHT22;16066;0.000;0.000;2023-03-11T16:15:47;21.00;36.70
28959;DHT22;16066;0.000;0.000;2023-03-11T16:18:13;21.00;36.70
28959;DHT22;16066;0.000;0.000;2023-03-11T16:20:48;21.00;36.30
28959;DHT22;16066;0.000;0.000;2023-03-11T16:23:26;21.00;36.30
28959;DHT22;16066;0.000;0.000;2023-03-11T16:25:56;21.00;36.30
28959;DHT22;16066;0.000;0.000;2023-03-11T16:28:23;21.00;36.40
28959;DHT22;16066;0.000;0.000;2023-03-11T16:30:49;20.90;36.40
28959;DHT22;16066;0.000;0.000;2023-03-11T16:33:15;20.90;36.60
28959;DHT22;16066;0.000;0.000;2023-03-11T16:35:40;20.80;36.80
28959;DHT22;16066;0.000;0.000;2023-03-11T16:38:07;20.80;37.00
28959;DHT22;16066;0.000;0.000;2023-03-11T16:40:32;20.70;37.10
28959;DHT22;16066;0.000;0.000;2023-03-11T16:43:03;20.70;37.40
28959;DHT22;16066;0.000;0.000;2023-03-11T16:45:30;20.60;37.60
28959;DHT22;16066;0.000;0.000;2023-03-11T16:47:55;20.60;37.70
28959;DHT22;16066;0.000;0.000;2023-03-11T16:50:21;20.60;38.20
28959;DHT22;16066;0.000;0.000;2023-03-11T16:52:49;20.50;38.00
28959;DHT22;16066;0.000;0.000;2023-03-11T16:55:15;20.50;38.20
28959;DHT22;16066;0.000;0.000;2023-03-11T16:57:40;20.50;38.20
28959;DHT22;16066;0.000;0.000;2023-03-11T17:00:07;20.50;38.50
28959;DHT22;16066;0.000;0.000;2023-03-11T17:02:34;20.50;38.50
28959;DHT22;16066;0.000;0.000;2023-03-11T17:05:00;20.50;38.60
28959;DHT22;16066;0.000;0.000;2023-03-11T17:07:27;20.50;38.70
28959;DHT22;16066;0.000;0.000;2023-03-11T17:09:52;20.50;38.80
28959;DHT22;16066;0.000;0.000;2023-03-11T17:12:18;20.50;38.90
28959;DHT22;16066;0.000;0.000;2023-03-11T17:14:44;20.50;38.90
28959;DHT22;16066;0.000;0.000;2023-03-11T17:17:10;20.50;39.00
28959;DHT22;16066;0.000;0.000;2023-03-11T17:19:36;20.50;39.20
28959;DHT22;16066;0.000;0.000;2023-03-11T17:22:02;20.50;39.20